sensor_id;sensor_type;location;lat;lon;timestamp;temperature;humidity
63771;DHT22;60282;43.862;18.430;2022-10-17T00:02:31;10.50;99.90
63771;DHT22;60282;43.862;18.430;2022-10-17T00:05:29;10.50;99.90
63771;DHT22;60282;43.862;18.430;2022-10-17T00:07:55;10.60;99.90
63771;DHT22;60282;43.862;18.430;2022-10-17T00:10:21;10.40;99.90
63771;DHT22;60282;43.862;18.430;2022-10-17T00:12:47;10.40;99.90
63771;DHT22;60282;43.862;18.430;2022-10-17T00:15:51;10.40;99.90
63771;DHT22;60282;43.862;18.430;2022-10-17T00:18:16;10.30;99.90
63771;DHT22;60282;43.862;18.430;2022-10-17T00:20:42;10.30;99.90
63771;DHT22;60282;43.862;18.430;2022-10-17T00:23:08;10.30;99.90
63771;DHT22;60282;43.862;18.430;2022-10-17T00:25:35;10.20;99.90
63771;DHT22;60282;43.862;18.430;2022-10-17T00:28:07;10.30;99.90
63771;DHT22;60282;43.862;18.430;2022-10-17T00:30:54;10.20;99.90
63771;DHT22;60282;43.862;18.430;2022-10-17T00:33:33;10.50;99.90
63771;DHT22;60282;43.862;18.430;2022-10-17T00:38:46;10.20;99.90
63771;DHT22;60282;43.862;18.430;2022-10-17T00:41:14;9.90;99.90
63771;DHT22;60282;43.862;18.430;2022-10-17T00:43:51;10.10;99.90
63771;DHT22;60282;43.862;18.430;2022-10-17T00:46:41;10.10;99.90
63771;DHT22;60282;43.862;18.430;2022-10-17T00:49:13;10.10;99.90
63771;DHT22;60282;43.862;18.430;2022-10-17T00:51:53;10.10;99.90
63771;DHT22;60282;43.862;18.430;2022-10-17T00:54:25;10.10;99.90
63771;DHT22;60282;43.862;18.430;2022-10-17T00:56:52;10.00;99.90
63771;DHT22;60282;43.862;18.430;2022-10-17T00:59:33;10.00;99.90
63771;DHT22;60282;43.862;18.430;2022-10-17T01:02:06;10.00;99.90
63771;DHT22;60282;43.862;18.430;2022-10-17T01:04:51;10.00;99.90
63771;DHT22;60282;43.862;18.430;2022-10-17T01:07:28;10.00;99.90
63771;DHT22;60282;43.862;18.430;2022-10-17T01:09:56;9.90;99.90
63771;DHT22;60282;43.862;18.430;2022-10-17T01:13:06;9.90;99.90
63771;DHT22;60282;43.862;18.430;2022-10-17T01:22:35;9.90;99.90
63771;DHT22;60282;43.862;18.430;2022-10-17T01:25:22;9.90;99.90
63771;DHT22;60282;43.862;18.430;2022-10-17T01:31:01;12.50;99.90
63771;DHT22;60282;43.862;18.430;2022-10-17T01:36:34;9.80;99.90
63771;DHT22;60282;43.862;18.430;2022-10-17T01:38:56;9.70;99.90
63771;DHT22;60282;43.862;18.430;2022-10-17T01:46:39;9.60;99.90
63771;DHT22;60282;43.862;18.430;2022-10-17T01:49:08;9.60;99.90
63771;DHT22;60282;43.862;18.430;2022-10-17T01:51:48;9.80;99.90
63771;DHT22;60282;43.862;18.430;2022-10-17T01:54:39;9.60;99.90
63771;DHT22;60282;43.862;18.430;2022-10-17T01:58:20;9.50;99.90
63771;DHT22;60282;43.862;18.430;2022-10-17T02:01:06;9.50;99.90
63771;DHT22;60282;43.862;18.430;2022-10-17T02:03:33;9.40;99.90
63771;DHT22;60282;43.862;18.430;2022-10-17T02:06:28;10.30;99.90
63771;DHT22;60282;43.862;18.430;2022-10-17T02:08:56;9.40;99.90
63771;DHT22;60282;43.862;18.430;2022-10-17T02:17:51;9.30;99.90
63771;DHT22;60282;43.862;18.430;2022-10-17T02:23:02;9.20;99.90
63771;DHT22;60282;43.862;18.430;2022-10-17T02:28:39;9.30;99.90
63771;DHT22;60282;43.862;18.430;2022-10-17T02:31:39;9.30;99.90
63771;DHT22;60282;43.862;18.430;2022-10-17T02:34:18;9.30;99.90
63771;DHT22;60282;43.862;18.430;2022-10-17T02:36:50;9.30;99.90
63771;DHT22;60282;43.862;18.430;2022-10-17T02:39:19;9.30;99.90
63771;DHT22;60282;43.862;18.430;2022-10-17T02:41:48;9.30;99.90
63771;DHT22;60282;43.862;18.430;2022-10-17T02:44:16;9.30;99.90
63771;DHT22;60282;43.862;18.430;2022-10-17T02:46:50;9.30;99.90
63771;DHT22;60282;43.862;18.430;2022-10-17T02:49:22;9.20;99.90
63771;DHT22;60282;43.862;18.430;2022-10-17T02:52:24;9.30;99.90
63771;DHT22;60282;43.862;18.430;2022-10-17T03:07:38;9.10;99.90
63771;DHT22;60282;43.862;18.430;2022-10-17T03:10:05;9.10;99.90
63771;DHT22;60282;43.862;18.430;2022-10-17T03:12:31;9.10;99.90
63771;DHT22;60282;43.862;18.430;2022-10-17T03:14:57;9.10;99.90
63771;DHT22;60282;43.862;18.430;2022-10-17T03:17:22;9.10;99.90
63771;DHT22;60282;43.862;18.430;2022-10-17T03:19:48;8.90;99.90
63771;DHT22;60282;43.862;18.430;2022-10-17T03:22:14;9.10;99.90
63771;DHT22;60282;43.862;18.430;2022-10-17T03:29:54;9.00;99.90
63771;DHT22;60282;43.862;18.430;2022-10-17T03:32:49;8.90;99.90
63771;DHT22;60282;43.862;18.430;2022-10-17T03:35:14;9.00;99.90
63771;DHT22;60282;43.862;18.430;2022-10-17T03:38:07;8.90;99.90
63771;DHT22;60282;43.862;18.430;2022-10-17T03:40:41;8.90;99.90
63771;DHT22;60282;43.862;18.430;2022-10-17T03:43:06;8.90;99.90
63771;DHT22;60282;43.862;18.430;2022-10-17T03:45:32;8.90;99.90
63771;DHT22;60282;43.862;18.430;2022-10-17T03:47:58;8.90;99.90
63771;DHT22;60282;43.862;18.430;2022-10-17T03:50:25;8.90;99.90
63771;DHT22;60282;43.862;18.430;2022-10-17T03:53:12;8.90;99.90
63771;DHT22;60282;43.862;18.430;2022-10-17T03:55:38;8.90;99.90
63771;DHT22;60282;43.862;18.430;2022-10-17T03:58:24;8.80;99.90
63771;DHT22;60282;43.862;18.430;2022-10-17T04:00:52;8.80;99.90
63771;DHT22;60282;43.862;18.430;2022-10-17T04:03:18;8.80;99.90
63771;DHT22;60282;43.862;18.430;2022-10-17T04:06:10;8.80;99.90
63771;DHT22;60282;43.862;18.430;2022-10-17T04:08:55;10.30;99.90
63771;DHT22;60282;43.862;18.430;2022-10-17T04:11:22;8.70;99.90
63771;DHT22;60282;43.862;18.430;2022-10-17T04:13:52;8.70;99.90
63771;DHT22;60282;43.862;18.430;2022-10-17T04:16:19;8.60;99.90
63771;DHT22;60282;43.862;18.430;2022-10-17T04:18:44;8.60;99.90
63771;DHT22;60282;43.862;18.430;2022-10-17T04:21:11;8.60;99.90
63771;DHT22;60282;43.862;18.430;2022-10-17T04:24:10;8.70;99.90
63771;DHT22;60282;43.862;18.430;2022-10-17T04:26:51;8.50;99.90
63771;DHT22;60282;43.862;18.430;2022-10-17T04:29:19;8.60;99.90
63771;DHT22;60282;43.862;18.430;2022-10-17T04:31:45;8.50;99.90
63771;DHT22;60282;43.862;18.430;2022-10-17T04:41:40;8.50;99.90
63771;DHT22;60282;43.862;18.430;2022-10-17T04:47:11;8.50;99.90
63771;DHT22;60282;43.862;18.430;2022-10-17T04:49:53;7.70;99.90
63771;DHT22;60282;43.862;18.430;2022-10-17T04:54:53;8.50;99.90
63771;DHT22;60282;43.862;18.430;2022-10-17T04:59:44;8.50;99.90
63771;DHT22;60282;43.862;18.430;2022-10-17T05:02:33;8.50;99.90
63771;DHT22;60282;43.862;18.430;2022-10-17T05:08:04;8.50;99.90
63771;DHT22;60282;43.862;18.430;2022-10-17T05:10:34;8.60;99.90
63771;DHT22;60282;43.862;18.430;2022-10-17T05:13:14;8.60;99.90
63771;DHT22;60282;43.862;18.430;2022-10-17T05:15:40;6.40;99.90
63771;DHT22;60282;43.862;18.430;2022-10-17T05:18:06;8.60;99.90
63771;DHT22;60282;43.862;18.430;2022-10-17T05:20:32;8.60;99.90
63771;DHT22;60282;43.862;18.430;2022-10-17T05:23:00;8.60;99.90
63771;DHT22;60282;43.862;18.430;2022-10-17T05:25:57;8.60;99.90
63771;DHT22;60282;43.862;18.430;2022-10-17T05:38:54;8.50;99.90
63771;DHT22;60282;43.862;18.430;2022-10-17T05:48:38;8.50;99.90
63771;DHT22;60282;43.862;18.430;2022-10-17T05:51:31;8.50;99.90
63771;DHT22;60282;43.862;18.430;2022-10-17T05:54:15;8.60;99.90
63771;DHT22;60282;43.862;18.430;2022-10-17T06:14:41;9.00;99.90
63771;DHT22;60282;43.862;18.430;2022-10-17T06:17:13;9.00;99.90
63771;DHT22;60282;43.862;18.430;2022-10-17T06:19:39;9.10;99.90
63771;DHT22;60282;43.862;18.430;2022-10-17T06:22:23;9.20;99.90
63771;DHT22;60282;43.862;18.430;2022-10-17T06:25:10;9.20;99.90
63771;DHT22;60282;43.862;18.430;2022-10-17T06:27:36;9.40;99.90
63771;DHT22;60282;43.862;18.430;2022-10-17T06:30:22;9.40;99.90
63771;DHT22;60282;43.862;18.430;2022-10-17T06:33:08;9.50;99.90
63771;DHT22;60282;43.862;18.430;2022-10-17T06:35:36;9.60;99.90
63771;DHT22;60282;43.862;18.430;2022-10-17T06:38:08;9.70;99.90
63771;DHT22;60282;43.862;18.430;2022-10-17T06:41:03;9.80;99.90
63771;DHT22;60282;43.862;18.430;2022-10-17T06:43:32;9.90;99.90
63771;DHT22;60282;43.862;18.430;2022-10-17T06:46:39;10.00;99.90
63771;DHT22;60282;43.862;18.430;2022-10-17T06:49:06;10.10;99.90
63771;DHT22;60282;43.862;18.430;2022-10-17T06:51:51;10.20;99.90
63771;DHT22;60282;43.862;18.430;2022-10-17T06:54:22;10.30;99.90
63771;DHT22;60282;43.862;18.430;2022-10-17T06:56:49;10.40;99.90
63771;DHT22;60282;43.862;18.430;2022-10-17T06:59:17;10.50;99.90
63771;DHT22;60282;43.862;18.430;2022-10-17T07:01:44;10.60;99.90
63771;DHT22;60282;43.862;18.430;2022-10-17T07:04:10;10.60;99.90
63771;DHT22;60282;43.862;18.430;2022-10-17T07:06:36;10.80;99.90
63771;DHT22;60282;43.862;18.430;2022-10-17T07:09:03;10.90;99.90
63771;DHT22;60282;43.862;18.430;2022-10-17T07:24:28;11.60;99.90
63771;DHT22;60282;43.862;18.430;2022-10-17T07:27:02;11.90;99.90
63771;DHT22;60282;43.862;18.430;2022-10-17T07:29:29;12.00;99.90
63771;DHT22;60282;43.862;18.430;2022-10-17T07:32:00;11.70;99.90
63771;DHT22;60282;43.862;18.430;2022-10-17T07:34:30;12.30;99.90
63771;DHT22;60282;43.862;18.430;2022-10-17T07:36:57;12.40;99.90
63771;DHT22;60282;43.862;18.430;2022-10-17T07:39:24;12.60;99.90
63771;DHT22;60282;43.862;18.430;2022-10-17T07:41:50;12.70;99.90
63771;DHT22;60282;43.862;18.430;2022-10-17T07:44:15;12.80;99.90
63771;DHT22;60282;43.862;18.430;2022-10-17T07:46:41;12.80;99.90
63771;DHT22;60282;43.862;18.430;2022-10-17T07:49:07;12.90;99.90
63771;DHT22;60282;43.862;18.430;2022-10-17T07:51:33;13.00;99.90
63771;DHT22;60282;43.862;18.430;2022-10-17T07:53:59;13.00;99.90
63771;DHT22;60282;43.862;18.430;2022-10-17T07:56:24;13.30;99.90
63771;DHT22;60282;43.862;18.430;2022-10-17T07:58:51;13.20;99.90
63771;DHT22;60282;43.862;18.430;2022-10-17T08:01:17;13.40;99.90
63771;DHT22;60282;43.862;18.430;2022-10-17T08:03:44;13.60;99.90
63771;DHT22;60282;43.862;18.430;2022-10-17T08:06:10;13.50;99.90
63771;DHT22;60282;43.862;18.430;2022-10-17T08:08:36;13.50;99.90
63771;DHT22;60282;43.862;18.430;2022-10-17T08:11:05;13.60;99.90
63771;DHT22;60282;43.862;18.430;2022-10-17T08:13:32;13.80;99.90
63771;DHT22;60282;43.862;18.430;2022-10-17T08:16:02;14.00;99.90
63771;DHT22;60282;43.862;18.430;2022-10-17T08:18:28;14.20;99.90
63771;DHT22;60282;43.862;18.430;2022-10-17T08:20:57;14.30;99.90
63771;DHT22;60282;43.862;18.430;2022-10-17T08:23:23;14.50;99.90
63771;DHT22;60282;43.862;18.430;2022-10-17T08:25:49;14.60;99.90
63771;DHT22;60282;43.862;18.430;2022-10-17T08:28:15;14.60;99.90
63771;DHT22;60282;43.862;18.430;2022-10-17T08:30:40;14.80;99.90
63771;DHT22;60282;43.862;18.430;2022-10-17T08:33:06;15.10;99.90
63771;DHT22;60282;43.862;18.430;2022-10-17T08:35:35;15.00;99.90
63771;DHT22;60282;43.862;18.430;2022-10-17T08:38:01;15.00;99.90
63771;DHT22;60282;43.862;18.430;2022-10-17T08:40:30;14.90;99.90
63771;DHT22;60282;43.862;18.430;2022-10-17T08:48:03;15.20;99.90
63771;DHT22;60282;43.862;18.430;2022-10-17T08:50:43;15.40;99.90
63771;DHT22;60282;43.862;18.430;2022-10-17T08:53:24;15.60;99.90
63771;DHT22;60282;43.862;18.430;2022-10-17T08:55:54;15.90;99.90
63771;DHT22;60282;43.862;18.430;2022-10-17T08:58:27;15.90;99.90
63771;DHT22;60282;43.862;18.430;2022-10-17T09:04:33;16.20;99.90
63771;DHT22;60282;43.862;18.430;2022-10-17T09:10:17;16.90;99.90
63771;DHT22;60282;43.862;18.430;2022-10-17T09:20:56;16.70;99.90
63771;DHT22;60282;43.862;18.430;2022-10-17T09:23:32;16.80;99.90
63771;DHT22;60282;43.862;18.430;2022-10-17T09:26:01;17.10;99.90
63771;DHT22;60282;43.862;18.430;2022-10-17T09:33:45;17.40;99.90
63771;DHT22;60282;43.862;18.430;2022-10-17T09:38:47;17.70;99.90
63771;DHT22;60282;43.862;18.430;2022-10-17T09:41:49;17.80;99.90
63771;DHT22;60282;43.862;18.430;2022-10-17T09:49:45;18.20;99.90
63771;DHT22;60282;43.862;18.430;2022-10-17T09:52:35;18.40;99.90
63771;DHT22;60282;43.862;18.430;2022-10-17T09:55:14;18.50;99.90
63771;DHT22;60282;43.862;18.430;2022-10-17T09:58:00;18.70;99.90
63771;DHT22;60282;43.862;18.430;2022-10-17T10:00:29;18.90;99.90
63771;DHT22;60282;43.862;18.430;2022-10-17T10:03:14;18.90;99.90
63771;DHT22;60282;43.862;18.430;2022-10-17T10:05:42;19.00;99.90
63771;DHT22;60282;43.862;18.430;2022-10-17T10:08:16;19.10;99.80
63771;DHT22;60282;43.862;18.430;2022-10-17T10:10:43;19.10;99.80
63771;DHT22;60282;43.862;18.430;2022-10-17T10:15:41;19.20;99.70
63771;DHT22;60282;43.862;18.430;2022-10-17T10:18:27;19.40;99.30
63771;DHT22;60282;43.862;18.430;2022-10-17T10:21:07;19.60;99.30
63771;DHT22;60282;43.862;18.430;2022-10-17T10:23:35;19.70;98.60
63771;DHT22;60282;43.862;18.430;2022-10-17T10:26:17;19.90;98.10
63771;DHT22;60282;43.862;18.430;2022-10-17T10:28:52;20.00;98.10
63771;DHT22;60282;43.862;18.430;2022-10-17T10:31:27;20.10;97.90
63771;DHT22;60282;43.862;18.430;2022-10-17T10:33:53;20.20;97.50
63771;DHT22;60282;43.862;18.430;2022-10-17T10:36:19;20.20;96.80
63771;DHT22;60282;43.862;18.430;2022-10-17T10:38:56;20.30;96.70
63771;DHT22;60282;43.862;18.430;2022-10-17T10:41:22;20.40;96.70
63771;DHT22;60282;43.862;18.430;2022-10-17T10:43:53;20.50;96.30
63771;DHT22;60282;43.862;18.430;2022-10-17T10:46:25;20.50;96.10
63771;DHT22;60282;43.862;18.430;2022-10-17T10:49:01;20.60;95.70
63771;DHT22;60282;43.862;18.430;2022-10-17T10:51:45;20.50;95.50
63771;DHT22;60282;43.862;18.430;2022-10-17T10:54:38;20.90;95.40
63771;DHT22;60282;43.862;18.430;2022-10-17T10:57:11;21.00;95.40
63771;DHT22;60282;43.862;18.430;2022-10-17T10:59:53;21.20;95.00
63771;DHT22;60282;43.862;18.430;2022-10-17T11:05:13;21.60;94.50
63771;DHT22;60282;43.862;18.430;2022-10-17T11:10:30;21.90;93.80
63771;DHT22;60282;43.862;18.430;2022-10-17T11:13:09;21.60;93.10
63771;DHT22;60282;43.862;18.430;2022-10-17T11:18:46;21.70;93.20
63771;DHT22;60282;43.862;18.430;2022-10-17T11:24:18;22.10;92.50
63771;DHT22;60282;43.862;18.430;2022-10-17T11:26:57;22.20;92.70
63771;DHT22;60282;43.862;18.430;2022-10-17T11:29:30;22.40;92.20
63771;DHT22;60282;43.862;18.430;2022-10-17T11:32:04;22.60;91.70
63771;DHT22;60282;43.862;18.430;2022-10-17T11:34:36;22.60;91.10
63771;DHT22;60282;43.862;18.430;2022-10-17T11:37:30;22.60;92.30
63771;DHT22;60282;43.862;18.430;2022-10-17T11:40:18;22.80;91.20
63771;DHT22;60282;43.862;18.430;2022-10-17T11:43:35;22.90;91.20
63771;DHT22;60282;43.862;18.430;2022-10-17T11:46:22;23.30;90.70
63771;DHT22;60282;43.862;18.430;2022-10-17T11:54:42;23.50;88.70
63771;DHT22;60282;43.862;18.430;2022-10-17T12:00:21;23.80;87.70
63771;DHT22;60282;43.862;18.430;2022-10-17T12:06:02;24.10;87.20
63771;DHT22;60282;43.862;18.430;2022-10-17T12:14:02;24.40;85.60
63771;DHT22;60282;43.862;18.430;2022-10-17T12:21:25;24.80;84.30
63771;DHT22;60282;43.862;18.430;2022-10-17T12:23:54;24.90;82.80
63771;DHT22;60282;43.862;18.430;2022-10-17T12:26:28;25.00;82.50
63771;DHT22;60282;43.862;18.430;2022-10-17T12:28:55;25.30;81.90
63771;DHT22;60282;43.862;18.430;2022-10-17T12:31:25;25.40;80.10
63771;DHT22;60282;43.862;18.430;2022-10-17T12:38:48;25.40;80.60
63771;DHT22;60282;43.862;18.430;2022-10-17T12:41:15;25.30;80.10
63771;DHT22;60282;43.862;18.430;2022-10-17T12:43:45;24.60;79.20
63771;DHT22;60282;43.862;18.430;2022-10-17T12:46:12;25.40;79.70
63771;DHT22;60282;43.862;18.430;2022-10-17T12:51:07;25.70;78.90
63771;DHT22;60282;43.862;18.430;2022-10-17T12:56:05;26.40;78.00
63771;DHT22;60282;43.862;18.430;2022-10-17T12:58:33;26.20;77.40
63771;DHT22;60282;43.862;18.430;2022-10-17T13:01:05;26.40;76.50
63771;DHT22;60282;43.862;18.430;2022-10-17T13:03:47;26.50;76.00
63771;DHT22;60282;43.862;18.430;2022-10-17T13:06:19;26.60;74.90
63771;DHT22;60282;43.862;18.430;2022-10-17T13:08:50;26.90;73.90
63771;DHT22;60282;43.862;18.430;2022-10-17T13:11:23;27.30;72.00
63771;DHT22;60282;43.862;18.430;2022-10-17T13:13:52;27.30;71.30
63771;DHT22;60282;43.862;18.430;2022-10-17T13:16:40;27.30;71.80
63771;DHT22;60282;43.862;18.430;2022-10-17T13:19:17;27.40;72.30
63771;DHT22;60282;43.862;18.430;2022-10-17T13:22:23;27.50;71.90
63771;DHT22;60282;43.862;18.430;2022-10-17T13:25:02;27.40;70.00
63771;DHT22;60282;43.862;18.430;2022-10-17T13:27:32;27.40;70.50
63771;DHT22;60282;43.862;18.430;2022-10-17T13:30:00;27.50;71.50
63771;DHT22;60282;43.862;18.430;2022-10-17T13:32:36;27.70;71.20
63771;DHT22;60282;43.862;18.430;2022-10-17T13:37:33;28.00;69.50
63771;DHT22;60282;43.862;18.430;2022-10-17T13:39:59;28.10;69.30
63771;DHT22;60282;43.862;18.430;2022-10-17T13:42:35;28.30;69.30
63771;DHT22;60282;43.862;18.430;2022-10-17T13:45:02;28.70;69.80
63771;DHT22;60282;43.862;18.430;2022-10-17T13:47:32;28.70;64.20
63771;DHT22;60282;43.862;18.430;2022-10-17T13:50:06;28.80;62.90
63771;DHT22;60282;43.862;18.430;2022-10-17T13:52:35;29.00;62.60
63771;DHT22;60282;43.862;18.430;2022-10-17T13:55:11;28.80;61.70
63771;DHT22;60282;43.862;18.430;2022-10-17T14:03:31;29.10;60.40
63771;DHT22;60282;43.862;18.430;2022-10-17T14:06:03;31.40;62.40
63771;DHT22;60282;43.862;18.430;2022-10-17T14:08:31;28.90;60.30
63771;DHT22;60282;43.862;18.430;2022-10-17T14:10:59;29.60;60.60
63771;DHT22;60282;43.862;18.430;2022-10-17T14:13:28;30.00;59.70
63771;DHT22;60282;43.862;18.430;2022-10-17T14:15:56;30.00;59.00
63771;DHT22;60282;43.862;18.430;2022-10-17T14:18:26;30.20;58.60
63771;DHT22;60282;43.862;18.430;2022-10-17T14:20:52;30.20;59.20
63771;DHT22;60282;43.862;18.430;2022-10-17T14:23:36;30.40;60.70
63771;DHT22;60282;43.862;18.430;2022-10-17T14:26:17;30.60;60.30
63771;DHT22;60282;43.862;18.430;2022-10-17T14:28:50;30.60;59.20
63771;DHT22;60282;43.862;18.430;2022-10-17T14:31:32;30.70;58.70
63771;DHT22;60282;43.862;18.430;2022-10-17T14:34:00;30.80;58.10
63771;DHT22;60282;43.862;18.430;2022-10-17T14:36:46;30.80;57.80
63771;DHT22;60282;43.862;18.430;2022-10-17T14:39:19;30.90;57.60
63771;DHT22;60282;43.862;18.430;2022-10-17T14:49:49;30.60;58.50
63771;DHT22;60282;43.862;18.430;2022-10-17T14:52:24;30.60;58.60
63771;DHT22;60282;43.862;18.430;2022-10-17T14:54:50;30.80;58.40
63771;DHT22;60282;43.862;18.430;2022-10-17T14:57:22;30.40;58.90
63771;DHT22;60282;43.862;18.430;2022-10-17T14:59:48;30.10;59.10
63771;DHT22;60282;43.862;18.430;2022-10-17T15:02:14;29.90;59.80
63771;DHT22;60282;43.862;18.430;2022-10-17T15:04:40;29.80;60.20
63771;DHT22;60282;43.862;18.430;2022-10-17T15:07:09;29.60;61.10
63771;DHT22;60282;43.862;18.430;2022-10-17T15:09:37;29.40;62.10
63771;DHT22;60282;43.862;18.430;2022-10-17T15:12:05;29.20;63.10
63771;DHT22;60282;43.862;18.430;2022-10-17T15:14:31;29.10;62.80
63771;DHT22;60282;43.862;18.430;2022-10-17T15:16:57;28.60;63.40
63771;DHT22;60282;43.862;18.430;2022-10-17T15:19:23;28.40;64.50
63771;DHT22;60282;43.862;18.430;2022-10-17T15:21:48;28.10;64.50
63771;DHT22;60282;43.862;18.430;2022-10-17T15:24:14;27.80;64.80
63771;DHT22;60282;43.862;18.430;2022-10-17T15:26:40;27.30;65.90
63771;DHT22;60282;43.862;18.430;2022-10-17T15:29:06;26.80;67.50
63771;DHT22;60282;43.862;18.430;2022-10-17T15:31:32;26.30;68.00
63771;DHT22;60282;43.862;18.430;2022-10-17T15:33:57;26.00;68.30
63771;DHT22;60282;43.862;18.430;2022-10-17T15:36:24;25.60;69.30
63771;DHT22;60282;43.862;18.430;2022-10-17T15:38:52;25.30;70.10
63771;DHT22;60282;43.862;18.430;2022-10-17T15:41:20;24.90;70.80
63771;DHT22;60282;43.862;18.430;2022-10-17T15:43:47;24.40;71.80
63771;DHT22;60282;43.862;18.430;2022-10-17T15:46:25;23.80;72.80
63771;DHT22;60282;43.862;18.430;2022-10-17T15:48:56;22.70;74.00
63771;DHT22;60282;43.862;18.430;2022-10-17T15:53:48;22.20;74.70
63771;DHT22;60282;43.862;18.430;2022-10-17T15:56:38;21.80;76.30
63771;DHT22;60282;43.862;18.430;2022-10-17T15:59:17;23.90;80.30
63771;DHT22;60282;43.862;18.430;2022-10-17T16:01:45;20.40;81.60
63771;DHT22;60282;43.862;18.430;2022-10-17T16:04:11;20.20;83.40
63771;DHT22;60282;43.862;18.430;2022-10-17T16:06:39;19.90;85.40
63771;DHT22;60282;43.862;18.430;2022-10-17T16:09:05;19.60;87.60
63771;DHT22;60282;43.862;18.430;2022-10-17T16:11:39;19.30;89.60
63771;DHT22;60282;43.862;18.430;2022-10-17T16:14:11;19.10;91.40
63771;DHT22;60282;43.862;18.430;2022-10-17T16:16:37;22.20;94.40
63771;DHT22;60282;43.862;18.430;2022-10-17T16:19:04;18.60;95.20
63771;DHT22;60282;43.862;18.430;2022-10-17T16:21:33;18.30;98.90
63771;DHT22;60282;43.862;18.430;2022-10-17T16:23:59;18.10;99.90
63771;DHT22;60282;43.862;18.430;2022-10-17T16:26:27;17.80;99.90
63771;DHT22;60282;43.862;18.430;2022-10-17T16:28:53;17.70;99.90
63771;DHT22;60282;43.862;18.430;2022-10-17T16:31:30;17.40;99.90
63771;DHT22;60282;43.862;18.430;2022-10-17T16:33:58;17.30;99.90
63771;DHT22;60282;43.862;18.430;2022-10-17T16:36:24;17.00;99.90
63771;DHT22;60282;43.862;18.430;2022-10-17T16:38:50;16.90;99.90
63771;DHT22;60282;43.862;18.430;2022-10-17T16:43:47;16.70;99.90
63771;DHT22;60282;43.862;18.430;2022-10-17T16:46:13;16.60;99.90
63771;DHT22;60282;43.862;18.430;2022-10-17T16:48:39;16.50;99.90
63771;DHT22;60282;43.862;18.430;2022-10-17T16:51:05;19.80;99.90
63771;DHT22;60282;43.862;18.430;2022-10-17T16:53:32;16.40;99.90
63771;DHT22;60282;43.862;18.430;2022-10-17T16:56:03;16.30;99.90
63771;DHT22;60282;43.862;18.430;2022-10-17T16:58:29;16.30;99.90
63771;DHT22;60282;43.862;18.430;2022-10-17T17:01:04;16.30;99.90
63771;DHT22;60282;43.862;18.430;2022-10-17T17:03:33;16.20;99.90
63771;DHT22;60282;43.862;18.430;2022-10-17T17:05:59;16.00;99.90
63771;DHT22;60282;43.862;18.430;2022-10-17T17:08:25;16.00;99.90
63771;DHT22;60282;43.862;18.430;2022-10-17T17:10:50;15.90;99.90
63771;DHT22;60282;43.862;18.430;2022-10-17T17:23:44;15.70;99.90
63771;DHT22;60282;43.862;18.430;2022-10-17T17:36:50;15.40;99.90
63771;DHT22;60282;43.862;18.430;2022-10-17T17:39:16;15.40;99.90
63771;DHT22;60282;43.862;18.430;2022-10-17T17:41:43;15.20;99.90
63771;DHT22;60282;43.862;18.430;2022-10-17T17:44:11;15.20;99.90
63771;DHT22;60282;43.862;18.430;2022-10-17T17:46:37;15.20;99.90
63771;DHT22;60282;43.862;18.430;2022-10-17T17:49:03;15.30;99.90
63771;DHT22;60282;43.862;18.430;2022-10-17T17:51:29;15.20;99.90
63771;DHT22;60282;43.862;18.430;2022-10-17T17:53:55;15.00;99.90
63771;DHT22;60282;43.862;18.430;2022-10-17T17:56:27;14.90;99.90
63771;DHT22;60282;43.862;18.430;2022-10-17T17:58:55;14.80;99.90
63771;DHT22;60282;43.862;18.430;2022-10-17T18:01:23;14.70;99.90
63771;DHT22;60282;43.862;18.430;2022-10-17T18:03:50;14.60;99.90
63771;DHT22;60282;43.862;18.430;2022-10-17T18:06:17;14.60;99.90
63771;DHT22;60282;43.862;18.430;2022-10-17T18:08:45;11.90;99.90
63771;DHT22;60282;43.862;18.430;2022-10-17T18:11:12;14.60;99.90
63771;DHT22;60282;43.862;18.430;2022-10-17T18:13:37;14.60;99.90
63771;DHT22;60282;43.862;18.430;2022-10-17T18:16:04;14.60;99.90
63771;DHT22;60282;43.862;18.430;2022-10-17T18:18:39;14.60;99.90
63771;DHT22;60282;43.862;18.430;2022-10-17T18:21:06;14.60;99.90
63771;DHT22;60282;43.862;18.430;2022-10-17T18:23:34;13.30;99.90
63771;DHT22;60282;43.862;18.430;2022-10-17T18:26:00;14.50;99.90
63771;DHT22;60282;43.862;18.430;2022-10-17T18:28:27;14.40;99.90
63771;DHT22;60282;43.862;18.430;2022-10-17T18:30:53;14.50;99.90
63771;DHT22;60282;43.862;18.430;2022-10-17T18:33:19;14.30;99.90
63771;DHT22;60282;43.862;18.430;2022-10-17T18:35:47;14.20;99.90
63771;DHT22;60282;43.862;18.430;2022-10-17T18:40:39;14.20;99.90
63771;DHT22;60282;43.862;18.430;2022-10-17T18:43:04;14.20;99.90
63771;DHT22;60282;43.862;18.430;2022-10-17T18:47:56;14.00;99.90
63771;DHT22;60282;43.862;18.430;2022-10-17T18:50:23;13.90;99.90
63771;DHT22;60282;43.862;18.430;2022-10-17T18:52:49;13.90;99.90
63771;DHT22;60282;43.862;18.430;2022-10-17T18:55:16;13.80;99.90
63771;DHT22;60282;43.862;18.430;2022-10-17T18:57:46;13.80;99.90
63771;DHT22;60282;43.862;18.430;2022-10-17T19:00:14;13.80;99.90
63771;DHT22;60282;43.862;18.430;2022-10-17T19:02:40;13.70;99.90
63771;DHT22;60282;43.862;18.430;2022-10-17T19:05:06;13.70;99.90
63771;DHT22;60282;43.862;18.430;2022-10-17T19:07:32;13.70;99.90
63771;DHT22;60282;43.862;18.430;2022-10-17T19:09:58;13.60;99.90
63771;DHT22;60282;43.862;18.430;2022-10-17T19:12:24;13.60;99.90
63771;DHT22;60282;43.862;18.430;2022-10-17T19:14:49;13.60;99.90
63771;DHT22;60282;43.862;18.430;2022-10-17T19:17:18;13.60;99.90
63771;DHT22;60282;43.862;18.430;2022-10-17T19:19:44;13.60;99.90
63771;DHT22;60282;43.862;18.430;2022-10-17T19:22:14;13.60;99.90
63771;DHT22;60282;43.862;18.430;2022-10-17T19:24:40;13.60;99.90
63771;DHT22;60282;43.862;18.430;2022-10-17T19:27:06;12.10;99.90
63771;DHT22;60282;43.862;18.430;2022-10-17T19:29:31;13.50;99.90
63771;DHT22;60282;43.862;18.430;2022-10-17T19:31:58;13.50;99.90
63771;DHT22;60282;43.862;18.430;2022-10-17T19:34:24;13.50;99.90
63771;DHT22;60282;43.862;18.430;2022-10-17T19:36:50;13.50;99.90
63771;DHT22;60282;43.862;18.430;2022-10-17T19:39:18;13.40;99.90
63771;DHT22;60282;43.862;18.430;2022-10-17T19:41:46;13.30;99.90
63771;DHT22;60282;43.862;18.430;2022-10-17T19:44:12;13.20;99.90
63771;DHT22;60282;43.862;18.430;2022-10-17T19:46:39;13.20;99.90
63771;DHT22;60282;43.862;18.430;2022-10-17T19:49:05;13.20;99.90
63771;DHT22;60282;43.862;18.430;2022-10-17T19:51:32;13.10;99.90
63771;DHT22;60282;43.862;18.430;2022-10-17T19:54:00;13.00;99.90
63771;DHT22;60282;43.862;18.430;2022-10-17T19:56:28;13.00;99.90